createdAt,value
2022-10-22T00:01:03.805Z,15.40
2022-10-22T00:03:31.998Z,15.40
2022-10-22T00:06:00.030Z,15.40
2022-10-22T00:08:28.176Z,15.30
2022-10-22T00:10:56.469Z,15.30
2022-10-22T00:13:24.650Z,15.30
2022-10-22T00:15:52.942Z,15.20
2022-10-22T00:18:22.269Z,15.30
2022-10-22T00:20:50.258Z,15.30
2022-10-22T00:23:18.299Z,15.30
2022-10-22T00:25:46.310Z,15.30
2022-10-22T00:28:14.908Z,15.30
2022-10-22T00:30:42.972Z,15.30
2022-10-22T00:33:10.956Z,15.30
2022-10-22T00:35:40.365Z,15.30
2022-10-22T00:38:08.329Z,15.40
2022-10-22T00:40:37.694Z,15.30
2022-10-22T00:43:05.814Z,15.30
2022-10-22T00:45:33.895Z,15.40
2022-10-22T00:48:05.789Z,15.40
2022-10-22T00:50:36.673Z,15.40
2022-10-22T00:53:09.276Z,15.40
2022-10-22T00:55:38.065Z,15.40
2022-10-22T00:58:06.174Z,15.40
2022-10-22T01:00:34.446Z,15.40
2022-10-22T01:03:02.846Z,15.30
2022-10-22T01:05:34.107Z,15.40
2022-10-22T01:08:02.176Z,15.40
2022-10-22T01:10:44.660Z,15.30
2022-10-22T01:13:22.442Z,15.40
2022-10-22T01:15:59.593Z,15.30
2022-10-22T01:18:38.100Z,15.30
2022-10-22T01:21:15.130Z,15.30
2022-10-22T01:24:07.760Z,15.30
2022-10-22T01:26:52.086Z,15.30
2022-10-22T01:29:27.586Z,15.30
2022-10-22T01:31:59.442Z,15.30
2022-10-22T01:34:28.930Z,15.30
2022-10-22T01:36:58.365Z,15.30
2022-10-22T01:39:28.071Z,15.20
2022-10-22T01:41:56.478Z,15.30
2022-10-22T01:44:30.963Z,15.30
2022-10-22T01:47:08.984Z,15.20
2022-10-22T01:49:54.481Z,15.30
2022-10-22T01:52:33.621Z,15.20
2022-10-22T01:55:10.774Z,15.20
2022-10-22T01:57:45.297Z,15.20
2022-10-22T02:00:16.219Z,15.20
2022-10-22T02:02:50.973Z,15.20
2022-10-22T02:05:23.926Z,15.20
2022-10-22T02:07:56.410Z,15.30
2022-10-22T02:10:25.733Z,15.20
2022-10-22T02:12:56.913Z,15.20
2022-10-22T02:15:28.791Z,15.20
2022-10-22T02:17:59.370Z,15.20
2022-10-22T02:20:30.030Z,15.20
2022-10-22T02:22:59.235Z,15.20
2022-10-22T02:25:31.662Z,15.20
2022-10-22T02:28:03.602Z,15.20
2022-10-22T02:30:34.695Z,15.20
2022-10-22T02:33:09.642Z,15.20
2022-10-22T02:35:39.774Z,15.20
2022-10-22T02:38:09.088Z,15.20
2022-10-22T02:40:37.682Z,15.20
2022-10-22T02:43:06.306Z,15.10
2022-10-22T02:45:36.174Z,15.10
2022-10-22T02:48:04.578Z,15.10
2022-10-22T02:50:32.569Z,15.10
2022-10-22T02:53:00.534Z,15.10
2022-10-22T02:55:28.553Z,15.10
2022-10-22T02:57:56.532Z,15.10
2022-10-22T03:00:24.512Z,15.00
2022-10-22T03:02:53.825Z,15.00
2022-10-22T03:05:23.427Z,15.00
2022-10-22T03:07:51.602Z,15.00
2022-10-22T03:10:19.574Z,15.00
2022-10-22T03:12:48.250Z,15.00
2022-10-22T03:15:16.377Z,15.00
2022-10-22T03:17:44.372Z,15.00
2022-10-22T03:20:13.706Z,15.00
2022-10-22T03:22:43.356Z,14.90
2022-10-22T03:25:15.659Z,14.80
2022-10-22T03:27:44.629Z,14.90
2022-10-22T03:30:13.254Z,14.80
2022-10-22T03:32:41.292Z,14.80
2022-10-22T03:35:09.881Z,14.80
2022-10-22T03:37:40.460Z,14.80
2022-10-22T03:40:11.486Z,14.70
2022-10-22T03:42:39.890Z,14.70
2022-10-22T03:45:08.962Z,14.60
2022-10-22T03:47:37.869Z,14.60
2022-10-22T03:50:07.184Z,14.70
2022-10-22T03:52:39.723Z,14.70
2022-10-22T03:55:09.011Z,14.80
2022-10-22T03:57:37.388Z,14.70
2022-10-22T04:00:07.343Z,14.70
2022-10-22T04:02:35.310Z,14.70
2022-10-22T04:05:03.453Z,14.70
2022-10-22T04:07:31.516Z,14.70
2022-10-22T04:10:00.871Z,14.70
2022-10-22T04:12:28.879Z,14.70
2022-10-22T04:14:57.011Z,14.70
2022-10-22T04:17:25.049Z,14.70
2022-10-22T04:19:52.974Z,14.70
2022-10-22T04:22:20.937Z,14.70
2022-10-22T04:24:48.901Z,14.70
2022-10-22T04:27:18.203Z,14.70
2022-10-22T04:29:46.177Z,14.70
2022-10-22T04:32:14.143Z,14.70
2022-10-22T04:34:42.081Z,14.70
2022-10-22T04:37:10.021Z,14.70
2022-10-22T04:39:37.962Z,14.70
2022-10-22T04:42:06.220Z,14.60
2022-10-22T04:44:35.823Z,14.60
2022-10-22T04:47:03.818Z,14.60
2022-10-22T04:49:31.791Z,14.50
2022-10-22T04:51:59.747Z,14.50
2022-10-22T04:54:30.617Z,14.50
2022-10-22T04:57:01.241Z,14.50
2022-10-22T04:59:29.188Z,14.40
2022-10-22T05:01:58.505Z,14.40
2022-10-22T05:04:26.538Z,14.30
2022-10-22T05:06:54.554Z,14.30
2022-10-22T05:09:22.873Z,14.30
2022-10-22T05:11:53.426Z,14.30
2022-10-22T05:14:23.846Z,14.20
2022-10-22T05:16:53.012Z,14.20
2022-10-22T05:19:24.919Z,14.20
2022-10-22T05:21:53.290Z,14.20
2022-10-22T05:24:22.112Z,14.20
2022-10-22T05:26:51.332Z,14.20
2022-10-22T05:29:19.322Z,14.20
2022-10-22T05:31:47.497Z,14.10
2022-10-22T05:34:15.923Z,14.10
2022-10-22T05:36:45.640Z,14.10
2022-10-22T05:39:14.137Z,14.20
2022-10-22T05:41:42.240Z,14.20
2022-10-22T05:44:13.079Z,14.20
2022-10-22T05:46:41.086Z,14.20
2022-10-22T05:49:09.154Z,14.20
2022-10-22T05:51:38.407Z,14.20
2022-10-22T05:54:10.971Z,14.20
2022-10-22T05:56:39.822Z,14.20
2022-10-22T05:59:07.840Z,14.20
2022-10-22T06:01:36.364Z,14.20
2022-10-22T06:04:06.673Z,14.20
2022-10-22T06:06:36.410Z,14.20
2022-10-22T06:09:11.356Z,14.20
2022-10-22T06:11:39.395Z,14.20
2022-10-22T06:14:07.371Z,14.20
2022-10-22T06:16:35.451Z,14.30
2022-10-22T06:19:04.107Z,14.30
2022-10-22T06:21:33.301Z,14.40
2022-10-22T06:24:02.471Z,14.40
2022-10-22T06:26:32.607Z,14.50
2022-10-22T06:29:00.613Z,14.50
2022-10-22T06:31:29.403Z,14.60
2022-10-22T06:33:58.054Z,14.60
2022-10-22T06:36:26.090Z,14.70
2022-10-22T06:38:54.758Z,14.70
2022-10-22T06:41:25.753Z,14.80
2022-10-22T06:43:58.772Z,14.80
2022-10-22T06:46:27.544Z,14.80
2022-10-22T06:48:58.032Z,14.80
2022-10-22T06:51:26.768Z,14.90
2022-10-22T06:53:55.420Z,14.90
2022-10-22T06:56:25.101Z,14.90
2022-10-22T06:58:54.427Z,14.90
2022-10-22T07:01:25.472Z,14.90
2022-10-22T07:03:54.494Z,14.90
2022-10-22T07:06:23.364Z,14.80
2022-10-22T07:08:51.819Z,14.80
2022-10-22T07:11:22.424Z,14.80
2022-10-22T07:13:51.095Z,14.80
2022-10-22T07:16:19.973Z,14.80
2022-10-22T07:18:49.632Z,14.80
2022-10-22T07:21:20.293Z,14.90
2022-10-22T07:23:48.542Z,14.90
2022-10-22T07:26:20.302Z,14.90
2022-10-22T07:28:48.861Z,14.90
2022-10-22T07:31:17.808Z,14.90
2022-10-22T07:33:46.364Z,15.00
2022-10-22T07:36:18.383Z,15.00
2022-10-22T07:38:46.690Z,15.10
2022-10-22T07:41:15.948Z,15.20
2022-10-22T07:43:44.242Z,15.30
2022-10-22T07:46:12.307Z,15.40
2022-10-22T07:48:40.378Z,15.50
2022-10-22T07:51:08.700Z,15.60
2022-10-22T07:53:38.056Z,15.70
2022-10-22T07:56:07.047Z,15.80
2022-10-22T07:58:35.246Z,15.80
2022-10-22T08:01:05.668Z,15.90
2022-10-22T08:03:34.155Z,16.00
2022-10-22T08:06:02.917Z,16.00
2022-10-22T08:08:31.267Z,16.10
2022-10-22T08:11:02.532Z,16.20
2022-10-22T08:13:31.513Z,16.30
2022-10-22T08:16:00.186Z,16.40
2022-10-22T08:18:28.592Z,16.40
2022-10-22T08:20:56.768Z,16.50
2022-10-22T08:23:27.669Z,16.50
2022-10-22T08:25:56.998Z,16.60
2022-10-22T08:28:28.475Z,16.60
2022-10-22T08:30:56.591Z,16.60
2022-10-22T08:33:24.572Z,16.60
2022-10-22T08:35:53.580Z,16.60
2022-10-22T08:38:21.797Z,16.50
2022-10-22T08:40:54.985Z,16.50
2022-10-22T08:44:08.704Z,16.40
2022-10-22T08:47:10.806Z,16.40
2022-10-22T08:49:42.240Z,16.40
2022-10-22T08:52:13.563Z,16.40
2022-10-22T08:54:50.367Z,16.50
2022-10-22T08:57:41.302Z,16.60
2022-10-22T09:00:16.722Z,16.70
2022-10-22T09:03:00.503Z,16.70
2022-10-22T09:05:40.461Z,16.80
2022-10-22T09:08:12.244Z,16.80
2022-10-22T09:10:49.672Z,16.80
2022-10-22T09:13:22.026Z,16.90
2022-10-22T09:15:53.596Z,16.90
2022-10-22T09:18:36.564Z,16.90
2022-10-22T09:21:13.338Z,16.90
2022-10-22T09:23:52.050Z,17.00
2022-10-22T09:26:19.997Z,17.00
2022-10-22T09:28:52.001Z,17.00
2022-10-22T09:31:20.166Z,17.00
2022-10-22T09:33:52.047Z,17.00
2022-10-22T09:36:23.824Z,17.00
2022-10-22T09:38:53.971Z,17.00
2022-10-22T09:41:30.654Z,17.00
2022-10-22T09:43:59.520Z,17.10
2022-10-22T09:46:30.713Z,17.10
2022-10-22T09:49:07.766Z,17.10
2022-10-22T09:51:50.055Z,17.00
2022-10-22T09:54:20.429Z,17.00
2022-10-22T09:56:54.139Z,17.00
2022-10-22T09:59:28.950Z,17.00
2022-10-22T10:02:13.743Z,17.00
2022-10-22T10:04:52.452Z,17.00
2022-10-22T10:07:22.609Z,17.00
2022-10-22T10:09:51.970Z,17.10
2022-10-22T10:12:40.918Z,17.00
2022-10-22T10:15:15.968Z,17.10
2022-10-22T10:17:52.021Z,17.10
2022-10-22T10:20:35.780Z,17.10
2022-10-22T10:23:11.371Z,17.00
2022-10-22T10:25:50.164Z,17.10
2022-10-22T10:28:26.845Z,17.20
2022-10-22T10:31:02.144Z,17.20
2022-10-22T10:33:43.739Z,17.20
2022-10-22T10:36:19.610Z,17.20
2022-10-22T10:38:57.697Z,17.20
2022-10-22T10:41:38.842Z,17.30
2022-10-22T10:44:27.049Z,17.30
2022-10-22T10:47:04.344Z,17.30
2022-10-22T10:49:35.592Z,17.30
2022-10-22T10:52:15.236Z,17.30
2022-10-22T10:54:55.640Z,17.40
2022-10-22T10:57:36.703Z,17.50
2022-10-22T11:00:08.457Z,17.50
2022-10-22T11:03:05.552Z,17.60
2022-10-22T11:05:40.268Z,17.60
2022-10-22T11:08:15.636Z,17.70
2022-10-22T11:10:47.961Z,17.70
2022-10-22T11:13:24.595Z,17.70
2022-10-22T11:16:00.676Z,17.70
2022-10-22T11:18:34.059Z,17.80
2022-10-22T11:21:11.228Z,17.80
2022-10-22T11:23:46.180Z,17.90
2022-10-22T11:26:20.267Z,17.90
2022-10-22T11:28:53.678Z,17.90
2022-10-22T11:31:25.934Z,17.80
2022-10-22T11:34:04.953Z,17.80
2022-10-22T11:36:44.690Z,17.80
2022-10-22T11:39:33.048Z,17.70
2022-10-22T11:42:03.206Z,17.70
2022-10-22T11:44:32.542Z,17.70
2022-10-22T11:47:16.416Z,17.60
2022-10-22T11:49:46.527Z,17.60
2022-10-22T11:52:26.566Z,17.60
2022-10-22T11:54:58.769Z,17.60
2022-10-22T11:57:38.047Z,17.60
2022-10-22T12:00:12.489Z,17.60
2022-10-22T12:02:43.153Z,17.70
2022-10-22T12:05:44.009Z,17.70
2022-10-22T12:08:26.119Z,17.70
2022-10-22T12:11:04.988Z,17.80
2022-10-22T12:13:35.089Z,17.80
2022-10-22T12:16:05.652Z,17.80
2022-10-22T12:18:42.135Z,17.80
2022-10-22T12:21:14.077Z,17.80
2022-10-22T12:23:42.525Z,17.80
2022-10-22T12:26:25.896Z,17.80
2022-10-22T12:28:59.082Z,17.90
2022-10-22T12:31:28.009Z,17.80
2022-10-22T12:33:59.605Z,17.80
2022-10-22T12:36:28.371Z,17.80
2022-10-22T12:38:56.443Z,17.90
2022-10-22T12:41:32.163Z,18.00
2022-10-22T12:44:01.246Z,18.10
2022-10-22T12:46:31.288Z,18.20
2022-10-22T12:49:01.657Z,18.20
2022-10-22T12:51:30.141Z,18.40
2022-10-22T12:54:02.858Z,18.70
2022-10-22T12:56:34.931Z,19.00
2022-10-22T12:59:06.133Z,19.20
2022-10-22T13:01:37.987Z,19.40
2022-10-22T13:04:22.512Z,19.60
2022-10-22T13:06:51.899Z,19.70
2022-10-22T13:09:23.964Z,19.80
2022-10-22T13:11:59.170Z,20.00
2022-10-22T13:14:30.137Z,20.20
2022-10-22T13:17:06.741Z,20.20
2022-10-22T13:19:40.763Z,20.10
2022-10-22T13:22:26.001Z,20.00
2022-10-22T13:27:31.870Z,19.60
2022-10-22T13:30:11.282Z,19.40
2022-10-22T13:32:40.005Z,19.40
2022-10-22T13:35:10.143Z,19.40
2022-10-22T13:37:38.867Z,19.40
2022-10-22T13:40:13.264Z,19.30
2022-10-22T13:42:42.848Z,19.20
2022-10-22T13:45:11.267Z,19.20
2022-10-22T13:47:39.383Z,19.50
2022-10-22T13:50:15.687Z,19.90
2022-10-22T13:52:47.616Z,20.30
2022-10-22T13:55:19.539Z,20.70
2022-10-22T13:57:49.746Z,20.70
2022-10-22T14:00:19.858Z,20.50
2022-10-22T14:02:50.215Z,20.30
2022-10-22T14:05:19.499Z,20.00
2022-10-22T14:07:48.161Z,20.00
2022-10-22T14:10:18.731Z,19.80
2022-10-22T14:12:52.398Z,19.70
2022-10-22T14:15:23.834Z,19.60
2022-10-22T14:17:57.195Z,19.50
2022-10-22T14:20:28.719Z,19.50
2022-10-22T14:23:02.292Z,19.50
2022-10-22T14:25:31.469Z,19.30
2022-10-22T14:28:00.966Z,19.20
2022-10-22T14:30:30.266Z,19.10
2022-10-22T14:32:59.192Z,19.00
2022-10-22T14:35:27.484Z,19.00
2022-10-22T14:37:55.486Z,19.00
2022-10-22T14:40:25.744Z,19.00
2022-10-22T14:42:53.824Z,19.00
2022-10-22T14:45:25.509Z,19.00
2022-10-22T14:47:55.636Z,19.00
2022-10-22T14:50:24.203Z,19.00
2022-10-22T14:52:52.949Z,19.00
2022-10-22T14:55:21.334Z,19.00
2022-10-22T14:57:49.374Z,19.10
2022-10-22T15:00:19.340Z,19.20
2022-10-22T15:02:49.311Z,19.20
2022-10-22T15:05:17.447Z,19.20
2022-10-22T15:07:45.839Z,19.20
2022-10-22T15:10:14.115Z,19.20
2022-10-22T15:12:42.160Z,19.20
2022-10-22T15:15:10.887Z,19.20
2022-10-22T15:17:39.158Z,19.10
2022-10-22T15:20:09.321Z,19.00
2022-10-22T15:22:37.778Z,18.90
2022-10-22T15:25:08.968Z,18.90
2022-10-22T15:27:37.171Z,18.90
2022-10-22T15:30:05.783Z,18.80
2022-10-22T15:32:34.095Z,18.80
2022-10-22T15:35:02.231Z,18.70
2022-10-22T15:37:31.840Z,18.60
2022-10-22T15:40:00.497Z,18.60
2022-10-22T15:42:28.518Z,18.50
2022-10-22T15:44:59.736Z,18.50
2022-10-22T15:47:29.575Z,18.40
2022-10-22T15:49:57.952Z,18.40
2022-10-22T15:52:26.007Z,18.30
2022-10-22T15:54:55.466Z,18.20
2022-10-22T15:57:23.442Z,18.30
2022-10-22T15:59:51.872Z,18.20
2022-10-22T16:02:19.860Z,18.20
2022-10-22T16:04:47.929Z,18.20
2022-10-22T16:07:16.090Z,18.10
2022-10-22T16:09:44.764Z,18.10
2022-10-22T16:12:17.170Z,18.10
2022-10-22T16:14:45.465Z,18.00
2022-10-22T16:17:14.534Z,18.00
2022-10-22T16:19:42.505Z,17.90
2022-10-22T16:22:13.639Z,17.90
2022-10-22T16:24:41.667Z,17.80
2022-10-22T16:27:09.784Z,17.70
2022-10-22T16:29:40.352Z,17.60
2022-10-22T16:32:08.348Z,17.60
2022-10-22T16:34:36.306Z,17.60
2022-10-22T16:37:09.814Z,17.50
2022-10-22T16:39:38.308Z,17.60
2022-10-22T16:42:06.643Z,17.50
2022-10-22T16:44:34.687Z,17.50
2022-10-22T16:47:04.073Z,17.40
2022-10-22T16:49:32.057Z,17.40
2022-10-22T16:52:00.142Z,17.40
2022-10-22T16:54:28.265Z,17.30
2022-10-22T16:56:56.254Z,17.30
2022-10-22T16:59:24.247Z,17.30
2022-10-22T17:01:52.234Z,17.20
2022-10-22T17:04:22.420Z,17.20
2022-10-22T17:06:50.429Z,17.20
2022-10-22T17:09:18.513Z,17.20
2022-10-22T17:11:47.366Z,17.20
2022-10-22T17:14:15.394Z,17.20
2022-10-22T17:16:43.438Z,17.20
2022-10-22T17:19:15.639Z,17.10
2022-10-22T17:21:45.105Z,17.20
2022-10-22T17:24:13.189Z,17.10
2022-10-22T17:26:41.410Z,17.10
2022-10-22T17:29:09.369Z,17.10
2022-10-22T17:31:38.428Z,17.10
2022-10-22T17:34:08.357Z,17.10
2022-10-22T17:36:37.523Z,17.00
2022-10-22T17:39:08.334Z,17.00
2022-10-22T17:41:38.347Z,17.00
2022-10-22T17:44:08.809Z,16.90
2022-10-22T17:46:37.341Z,16.90
2022-10-22T17:49:08.772Z,16.90
2022-10-22T17:51:36.774Z,16.80
2022-10-22T17:54:08.956Z,16.80
2022-10-22T17:56:40.001Z,16.80
2022-10-22T17:59:08.466Z,16.70
2022-10-22T18:01:37.819Z,16.70
2022-10-22T18:04:07.945Z,16.60
2022-10-22T18:06:36.609Z,16.70
2022-10-22T18:09:07.311Z,16.70
2022-10-22T18:11:36.519Z,16.60
2022-10-22T18:14:04.791Z,16.50
2022-10-22T18:16:32.776Z,16.50
2022-10-22T18:19:00.784Z,16.50
2022-10-22T18:21:30.664Z,16.40
2022-10-22T18:23:59.998Z,16.40
2022-10-22T18:26:29.561Z,16.50
2022-10-22T18:28:59.146Z,16.40
2022-10-22T18:31:28.389Z,16.40
2022-10-22T18:33:56.524Z,16.40
2022-10-22T18:36:26.471Z,16.40
2022-10-22T18:38:55.920Z,16.30
2022-10-22T18:41:24.304Z,16.30
2022-10-22T18:43:54.882Z,16.20
2022-10-22T18:46:23.975Z,16.20
2022-10-22T18:48:53.795Z,16.10
2022-10-22T18:51:22.116Z,16.10
2022-10-22T18:54:04.746Z,16.10
2022-10-22T18:56:40.541Z,16.10
2022-10-22T18:59:16.310Z,16.10
2022-10-22T19:01:44.373Z,16.20
2022-10-22T19:04:13.837Z,16.20
2022-10-22T19:06:45.361Z,16.10
2022-10-22T19:09:14.745Z,16.10
2022-10-22T19:11:43.658Z,16.10
2022-10-22T19:14:14.712Z,16.10
2022-10-22T19:16:42.783Z,16.10
2022-10-22T19:19:10.810Z,16.00
2022-10-22T19:21:38.999Z,16.10
2022-10-22T19:24:08.035Z,16.10
2022-10-22T19:26:36.004Z,16.10
2022-10-22T19:29:04.582Z,16.10
2022-10-22T19:31:34.350Z,16.10
2022-10-22T19:34:03.088Z,16.00
2022-10-22T19:36:32.840Z,16.00
2022-10-22T19:39:01.739Z,16.00
2022-10-22T19:41:35.625Z,16.00
2022-10-22T19:44:03.677Z,16.00
2022-10-22T19:46:33.459Z,16.00
2022-10-22T19:49:03.713Z,16.00
2022-10-22T19:51:33.820Z,16.00
2022-10-22T19:54:03.771Z,16.00
2022-10-22T19:56:32.709Z,16.00
2022-10-22T19:59:01.067Z,16.00
2022-10-22T20:01:29.175Z,15.90
2022-10-22T20:04:00.215Z,16.00
2022-10-22T20:06:28.740Z,16.00
2022-10-22T20:08:56.857Z,15.90
2022-10-22T20:11:26.463Z,15.90
2022-10-22T20:13:54.913Z,15.90
2022-10-22T20:16:25.019Z,15.90
2022-10-22T20:18:53.567Z,15.80
2022-10-22T20:21:23.059Z,15.80
2022-10-22T20:23:54.171Z,15.80
2022-10-22T20:26:23.843Z,15.80
2022-10-22T20:28:52.204Z,15.80
2022-10-22T20:31:21.873Z,15.80
2022-10-22T20:33:51.417Z,15.80
2022-10-22T20:36:21.823Z,15.80
2022-10-22T20:38:52.290Z,15.80
2022-10-22T20:41:22.008Z,15.80
2022-10-22T20:43:51.879Z,15.80
2022-10-22T20:46:22.914Z,15.80
2022-10-22T20:48:53.026Z,15.80
2022-10-22T20:51:21.452Z,15.70
2022-10-22T20:53:51.402Z,15.70
2022-10-22T20:56:20.582Z,15.70
2022-10-22T20:58:49.180Z,15.70
2022-10-22T21:01:21.804Z,15.70
2022-10-22T21:03:50.769Z,15.70
2022-10-22T21:06:20.891Z,15.70
2022-10-22T21:08:48.956Z,15.70
2022-10-22T21:11:18.853Z,15.60
2022-10-22T21:13:47.082Z,15.60
2022-10-22T21:16:17.967Z,15.60
2022-10-22T21:18:46.012Z,15.60
2022-10-22T21:21:16.914Z,15.60
2022-10-22T21:23:45.026Z,15.60
2022-10-22T21:26:13.255Z,15.60
2022-10-22T21:28:42.646Z,15.60
2022-10-22T21:31:14.152Z,15.50
2022-10-22T21:33:42.178Z,15.50
2022-10-22T21:36:10.476Z,15.40
2022-10-22T21:38:38.954Z,15.40
2022-10-22T21:41:09.680Z,15.40
2022-10-22T21:43:39.696Z,15.40
2022-10-22T21:46:11.367Z,15.40
2022-10-22T21:48:40.607Z,15.40
2022-10-22T21:51:10.233Z,15.30
2022-10-22T21:53:38.715Z,15.30
2022-10-22T21:56:08.346Z,15.30
2022-10-22T21:58:36.565Z,15.30
2022-10-22T22:01:05.158Z,15.30
2022-10-22T22:03:34.627Z,15.30
2022-10-22T22:06:06.281Z,15.30
2022-10-22T22:08:35.173Z,15.30
2022-10-22T22:11:03.811Z,15.30
2022-10-22T22:13:32.281Z,15.30
2022-10-22T22:16:01.875Z,15.20
2022-10-22T22:18:30.668Z,15.20
2022-10-22T22:21:00.740Z,15.20
2022-10-22T22:23:28.755Z,15.10
2022-10-22T22:26:00.009Z,15.20
2022-10-22T22:28:28.129Z,15.10
2022-10-22T22:30:56.148Z,15.10
2022-10-22T22:33:24.511Z,15.10
2022-10-22T22:35:52.486Z,15.10
2022-10-22T22:38:21.813Z,15.10
2022-10-22T22:40:49.768Z,15.00
2022-10-22T22:43:17.734Z,14.90
2022-10-22T22:45:45.758Z,15.00
2022-10-22T22:48:13.732Z,14.90
2022-10-22T22:50:41.733Z,14.90
2022-10-22T22:53:09.745Z,15.00
2022-10-22T22:55:39.077Z,15.00
2022-10-22T22:58:07.034Z,14.90
2022-10-22T23:00:35.078Z,14.90
2022-10-22T23:03:03.112Z,14.90
2022-10-22T23:05:31.134Z,14.90
2022-10-22T23:07:59.123Z,14.90
2022-10-22T23:10:27.153Z,14.80
2022-10-22T23:12:56.481Z,14.80
2022-10-22T23:15:24.479Z,14.80
2022-10-22T23:17:52.423Z,14.80
2022-10-22T23:20:20.450Z,14.80
2022-10-22T23:22:48.439Z,14.70
2022-10-22T23:25:16.490Z,14.70
2022-10-22T23:27:44.830Z,14.70
2022-10-22T23:30:14.903Z,14.70
2022-10-22T23:32:42.846Z,14.70
2022-10-22T23:35:10.918Z,14.60
2022-10-22T23:37:39.024Z,14.70
2022-10-22T23:40:08.401Z,14.70
2022-10-22T23:42:36.378Z,14.70
2022-10-22T23:45:04.625Z,14.60
2022-10-22T23:47:34.289Z,14.60
2022-10-22T23:50:02.222Z,14.70
2022-10-22T23:52:30.258Z,14.60
2022-10-22T23:54:58.274Z,14.60
2022-10-22T23:57:26.321Z,14.50
2022-10-22T23:59:55.743Z,14.50
